Time;durP1;ratioP1;P1;durP2;ratioP2;P2;SDS_P1;SDS_P2;PMS_P1;PMS_P2;Temp;Humidity;BMP_temperature;BMP_pressure;BME280_temperature;BME280_humidity;BME280_pressure;Samples;Min_cycle;Max_cycle;Signal;HPM_P1;HPM_P2
2022/08/13 00:01:21;;;;;;;3.30;2.23;;;19.50;91.30;;;;;;5058933;28;20867;-75
2022/08/13 00:03:53;;;;;;;4.03;2.10;;;19.50;91.50;;;;;;5058861;28;20496;-75
2022/08/13 00:06:51;;;;;;;2.27;2.00;;;19.40;91.60;;;;;;5056248;28;20452;-75
2022/08/13 00:09:15;;;;;;;2.40;2.20;;;19.40;91.70;;;;;;5058657;28;20472;-75
2022/08/13 00:14:31;;;;;;;2.17;2.07;;;19.40;92.10;;;;;;5070905;28;20544;-75
2022/08/13 00:16:59;;;;;;;3.90;2.20;;;19.30;92.10;;;;;;5060249;28;20423;-75
2022/08/13 00:19:29;;;;;;;3.30;2.30;;;19.30;92.20;;;;;;5054969;28;20464;-75
2022/08/13 00:21:57;;;;;;;3.27;2.47;;;19.20;92.30;;;;;;5070501;28;20471;-75
2022/08/13 00:24:24;;;;;;;6.23;2.50;;;19.20;92.30;;;;;;5064363;28;20426;-75
2022/08/13 00:26:51;;;;;;;5.00;2.30;;;19.20;92.40;;;;;;5065550;28;20494;-75
2022/08/13 00:29:18;;;;;;;3.07;2.23;;;19.20;92.50;;;;;;5054464;28;20872;-75
2022/08/13 00:31:49;;;;;;;2.70;2.40;;;19.00;92.50;;;;;;5056391;28;20453;-75
2022/08/13 00:34:17;;;;;;;3.63;2.80;;;19.00;92.80;;;;;;5054611;28;20435;-74
2022/08/13 00:36:47;;;;;;;3.83;2.33;;;18.90;92.70;;;;;;5056958;28;20422;-75
2022/08/13 00:39:14;;;;;;;3.00;2.40;;;18.90;92.70;;;;;;5062026;28;20510;-75
2022/08/13 00:41:44;;;;;;;2.30;2.10;;;18.90;92.90;;;;;;5067491;28;20974;-75
2022/08/13 00:44:13;;;;;;;9.60;2.20;;;18.80;92.80;;;;;;5057079;28;20431;-75
2022/08/13 00:46:41;;;;;;;2.33;2.17;;;18.80;92.80;;;;;;5070034;28;20428;-75
2022/08/13 00:49:09;;;;;;;2.83;2.20;;;18.80;92.90;;;;;;5070644;28;20475;-75
2022/08/13 00:51:37;;;;;;;2.07;1.93;;;18.90;93.00;;;;;;5068410;28;21021;-75
2022/08/13 00:54:07;;;;;;;5.00;2.13;;;18.90;93.00;;;;;;5064792;28;20448;-75
2022/08/13 00:56:35;;;;;;;2.50;2.30;;;18.80;93.00;;;;;;5057786;28;20434;-75
2022/08/13 00:59:07;;;;;;;3.10;2.33;;;18.80;93.20;;;;;;5059132;28;20419;-75
2022/08/13 01:01:35;;;;;;;2.80;2.20;;;18.80;93.10;;;;;;5068497;28;20467;-75
2022/08/13 01:04:03;;;;;;;2.63;2.43;;;18.80;93.20;;;;;;5062244;28;20455;-75
2022/08/13 01:06:31;;;;;;;3.47;2.10;;;18.80;93.40;;;;;;5062906;28;20427;-75
2022/08/13 01:08:59;;;;;;;2.53;2.30;;;18.70;93.30;;;;;;5063107;28;20534;-75
2022/08/13 01:11:31;;;;;;;3.83;2.17;;;18.70;93.40;;;;;;5061679;28;20492;-75
2022/08/13 01:14:00;;;;;;;2.97;2.37;;;18.80;93.50;;;;;;5065515;28;20518;-75
2022/08/13 01:16:30;;;;;;;5.90;2.27;;;18.70;93.40;;;;;;5058823;28;20452;-75
2022/08/13 01:18:57;;;;;;;2.57;2.37;;;18.70;93.70;;;;;;5055285;28;20489;-75
2022/08/13 01:21:26;;;;;;;6.40;2.37;;;18.70;93.80;;;;;;5055622;28;20865;-75
2022/08/13 01:23:55;;;;;;;6.13;2.10;;;18.60;93.90;;;;;;5056038;28;21005;-75
2022/08/13 01:26:23;;;;;;;8.77;2.70;;;18.60;93.90;;;;;;5070242;28;20502;-75
2022/08/13 01:28:52;;;;;;;2.27;2.17;;;18.50;94.10;;;;;;5064272;28;20414;-75
2022/08/13 01:31:20;;;;;;;5.03;2.57;;;18.50;94.20;;;;;;5066213;28;20512;-75
2022/08/13 01:33:49;;;;;;;2.67;2.30;;;18.50;94.30;;;;;;5070059;28;20480;-75
2022/08/13 01:36:16;;;;;;;4.37;2.23;;;18.40;94.60;;;;;;5053594;28;20505;-75
2022/08/13 01:38:44;;;;;;;6.33;2.07;;;18.30;94.70;;;;;;5062503;28;20423;-75
2022/08/13 01:41:12;;;;;;;6.97;2.60;;;18.30;95.00;;;;;;5064526;28;20845;-75
2022/08/13 01:43:41;;;;;;;3.50;2.20;;;18.30;95.10;;;;;;5059755;28;20431;-75
2022/08/13 01:46:10;;;;;;;2.40;2.20;;;18.20;95.30;;;;;;5065418;28;20430;-75
2022/08/13 01:51:26;;;;;;;2.50;2.30;;;18.20;95.80;;;;;;5063079;28;20988;-75
2022/08/13 01:53:54;;;;;;;2.90;2.60;;;18.20;95.80;;;;;;5064975;28;20475;-75
2022/08/13 01:56:23;;;;;;;2.50;2.30;;;18.10;95.90;;;;;;5063816;28;20513;-75
2022/08/13 01:58:51;;;;;;;2.93;2.50;;;18.10;96.20;;;;;;5059474;28;20419;-75
2022/08/13 02:01:25;;;;;;;3.10;2.80;;;18.10;96.30;;;;;;5063593;28;20434;-75
2022/08/13 02:03:52;;;;;;;2.97;2.47;;;18.10;96.50;;;;;;5064628;28;20423;-75
2022/08/13 02:06:22;;;;;;;6.33;2.73;;;18.00;96.60;;;;;;5061028;28;20485;-75
2022/08/13 02:08:51;;;;;;;3.20;2.43;;;18.00;96.80;;;;;;5064114;28;20426;-75
2022/08/13 02:11:18;;;;;;;3.07;2.77;;;18.00;97.00;;;;;;5058653;28;20522;-75
2022/08/13 02:13:48;;;;;;;4.20;2.50;;;18.00;97.20;;;;;;5062707;28;20444;-75
2022/08/13 02:16:14;;;;;;;2.90;2.40;;;17.90;97.20;;;;;;5057818;28;20459;-75
2022/08/13 02:18:41;;;;;;;4.87;2.70;;;18.00;97.30;;;;;;5063400;28;20495;-75
2022/08/13 02:21:08;;;;;;;3.20;2.90;;;17.90;97.50;;;;;;5062693;28;20514;-75
2022/08/13 02:23:35;;;;;;;2.63;2.43;;;17.90;97.60;;;;;;5065837;28;20455;-75
2022/08/13 02:26:05;;;;;;;6.53;2.90;;;17.90;97.80;;;;;;5060352;28;20551;-75
2022/08/13 02:28:39;;;;;;;2.70;2.50;;;17.90;97.90;;;;;;5061330;28;20435;-75
2022/08/13 02:31:09;;;;;;;3.07;2.87;;;17.90;98.10;;;;;;5054319;28;20463;-75
2022/08/13 02:33:37;;;;;;;6.23;3.40;;;17.80;98.30;;;;;;5056251;28;20998;-75
2022/08/13 02:36:10;;;;;;;8.13;3.10;;;17.80;98.50;;;;;;5067934;28;20977;-75
2022/08/13 02:38:37;;;;;;;3.27;3.07;;;17.70;98.60;;;;;;5060956;28;20457;-75
2022/08/13 02:43:50;;;;;;;3.30;3.00;;;17.80;98.80;;;;;;5067415;28;20436;-75
2022/08/13 02:46:20;;;;;;;3.87;3.43;;;17.80;98.80;;;;;;5068127;28;20434;-75
2022/08/13 02:48:46;;;;;;;5.70;3.13;;;17.80;98.90;;;;;;5066321;28;20427;-75
2022/08/13 02:51:13;;;;;;;3.03;2.73;;;17.80;99.00;;;;;;5063662;28;20801;-75
2022/08/13 02:53:40;;;;;;;7.30;2.80;;;17.80;99.10;;;;;;5055847;28;20485;-75
2022/08/13 02:56:08;;;;;;;2.80;2.60;;;17.80;99.20;;;;;;5054215;28;20500;-75
2022/08/13 02:58:36;;;;;;;3.40;3.10;;;17.70;99.30;;;;;;5056731;28;20431;-75
2022/08/13 03:01:04;;;;;;;4.37;3.30;;;17.70;99.60;;;;;;5053939;28;20442;-75
2022/08/13 03:03:33;;;;;;;6.33;3.10;;;17.70;99.60;;;;;;5058050;28;20451;-75
2022/08/13 03:05:59;;;;;;;3.80;3.50;;;17.60;99.70;;;;;;5053989;28;20477;-75
2022/08/13 03:08:27;;;;;;;5.63;3.00;;;17.70;99.90;;;;;;5059854;28;20444;-75
2022/08/13 03:10:55;;;;;;;3.97;3.33;;;17.60;99.90;;;;;;5054132;28;20507;-75
2022/08/13 03:13:24;;;;;;;4.80;3.20;;;17.60;99.90;;;;;;5054267;28;20449;-75
2022/08/13 03:15:53;;;;;;;4.90;3.50;;;17.60;99.90;;;;;;5067102;28;20444;-75
2022/08/13 03:18:20;;;;;;;6.63;3.30;;;17.50;99.90;;;;;;5062194;28;20432;-75
2022/08/13 03:20:49;;;;;;;6.40;3.23;;;17.50;99.90;;;;;;5053883;28;20849;-75
2022/08/13 03:23:16;;;;;;;3.17;2.97;;;17.50;99.90;;;;;;5056426;28;20423;-75
2022/08/13 03:25:42;;;;;;;6.93;3.67;;;17.50;99.90;;;;;;5056240;28;20848;-75
2022/08/13 03:28:09;;;;;;;11.10;3.37;;;17.40;99.90;;;;;;5062197;28;20948;-75
2022/08/13 03:30:36;;;;;;;6.10;3.10;;;17.40;99.90;;;;;;5065448;28;20443;-75
2022/08/13 03:33:07;;;;;;;9.23;3.17;;;17.40;99.90;;;;;;5056213;28;20458;-75
2022/08/13 03:35:35;;;;;;;7.80;3.63;;;17.30;99.90;;;;;;5055056;28;20862;-75
2022/08/13 03:38:05;;;;;;;3.43;3.13;;;17.30;99.90;;;;;;5054215;28;20431;-75
2022/08/13 03:43:13;;;;;;;4.80;2.80;;;17.30;99.90;;;;;;5054084;28;20429;-75
2022/08/13 03:45:40;;;;;;;6.80;3.10;;;17.20;99.90;;;;;;5054711;28;20457;-75
2022/08/13 03:48:07;;;;;;;3.60;3.00;;;17.20;99.90;;;;;;5054008;28;20510;-75
2022/08/13 03:50:34;;;;;;;4.23;3.33;;;17.20;99.90;;;;;;5061582;28;20454;-75
2022/08/13 03:53:01;;;;;;;4.57;2.93;;;17.10;99.90;;;;;;5053732;28;20428;-75
2022/08/13 03:55:30;;;;;;;3.47;3.20;;;17.20;99.90;;;;;;5056493;28;20445;-75
2022/08/13 03:57:58;;;;;;;3.90;3.00;;;17.10;99.90;;;;;;5064366;28;20454;-75
2022/08/13 04:00:27;;;;;;;4.00;3.70;;;17.10;99.90;;;;;;5064844;28;21181;-75
2022/08/13 04:02:53;;;;;;;9.90;3.23;;;17.10;99.90;;;;;;5061135;28;20442;-74
2022/08/13 04:05:20;;;;;;;3.30;2.80;;;17.10;99.90;;;;;;5054811;28;20430;-75
2022/08/13 04:07:50;;;;;;;2.90;2.70;;;17.10;99.90;;;;;;5056676;28;20787;-75
2022/08/13 04:10:17;;;;;;;4.03;3.27;;;17.10;99.90;;;;;;5066500;28;20492;-75
2022/08/13 04:12:46;;;;;;;6.00;3.30;;;17.10;99.90;;;;;;5059283;28;20443;-75
2022/08/13 04:15:13;;;;;;;5.30;3.30;;;17.10;99.90;;;;;;5054092;28;20437;-75
2022/08/13 04:17:40;;;;;;;3.00;2.80;;;17.00;99.90;;;;;;5055526;28;20447;-75
2022/08/13 04:20:09;;;;;;;8.23;3.37;;;17.00;99.90;;;;;;5065607;28;20446;-75
2022/08/13 04:22:37;;;;;;;3.50;3.20;;;17.00;99.90;;;;;;5063618;28;20449;-75
2022/08/13 04:25:04;;;;;;;4.10;3.20;;;17.00;99.90;;;;;;5056410;28;20454;-75
2022/08/13 04:27:32;;;;;;;3.30;3.00;;;17.00;99.90;;;;;;5053752;28;20455;-75
2022/08/13 04:30:00;;;;;;;3.67;3.37;;;17.00;99.90;;;;;;5063151;28;20448;-75
2022/08/13 04:32:27;;;;;;;11.40;3.60;;;17.00;99.90;;;;;;5059315;28;20537;-75
2022/08/13 04:34:54;;;;;;;3.07;2.87;;;17.00;99.90;;;;;;5066009;28;20448;-75
2022/08/13 04:37:22;;;;;;;12.50;2.73;;;17.10;99.90;;;;;;5067221;28;20451;-75
2022/08/13 04:39:51;;;;;;;5.03;2.80;;;17.10;99.90;;;;;;5058229;28;20490;-75
2022/08/13 04:42:17;;;;;;;5.30;2.70;;;17.10;99.90;;;;;;5057766;28;20464;-74
2022/08/13 04:44:44;;;;;;;5.60;3.97;;;17.10;99.90;;;;;;5066915;28;20525;-75
2022/08/13 04:47:12;;;;;;;6.57;3.00;;;17.10;99.90;;;;;;5063494;28;20497;-74
2022/08/13 04:49:39;;;;;;;4.70;3.10;;;17.20;99.90;;;;;;5064145;28;20471;-74
2022/08/13 04:52:05;;;;;;;3.60;3.33;;;17.20;99.90;;;;;;5057456;28;20484;-75
2022/08/13 04:54:32;;;;;;;3.53;3.23;;;17.20;99.90;;;;;;5067134;28;20946;-72
2022/08/13 04:56:59;;;;;;;3.83;3.53;;;17.30;99.90;;;;;;5063146;28;20452;-72
2022/08/13 04:59:25;;;;;;;3.37;3.10;;;17.30;99.90;;;;;;5068101;28;20504;-72
2022/08/13 05:01:52;;;;;;;11.20;4.80;;;17.50;99.90;;;;;;5060667;28;20740;-72
2022/08/13 05:04:20;;;;;;;3.37;3.13;;;17.60;99.90;;;;;;5059613;28;20976;-73
2022/08/13 05:06:49;;;;;;;8.30;3.30;;;17.70;99.90;;;;;;5063367;28;20517;-72
2022/08/13 05:09:15;;;;;;;2.80;2.60;;;17.90;99.90;;;;;;5070445;28;20788;-72
2022/08/13 05:11:42;;;;;;;7.17;2.97;;;18.10;99.90;;;;;;5062636;28;21053;-71
2022/08/13 05:14:09;;;;;;;5.50;3.00;;;18.30;99.90;;;;;;5056470;28;20834;-72
2022/08/13 05:16:36;;;;;;;4.80;2.87;;;18.40;99.90;;;;;;5070597;28;20429;-72
2022/08/13 05:19:04;;;;;;;3.07;2.73;;;18.60;99.90;;;;;;5059713;28;20950;-72
2022/08/13 05:21:32;;;;;;;8.20;3.23;;;18.80;99.90;;;;;;5063940;28;20442;-72
2022/08/13 05:23:59;;;;;;;7.13;2.90;;;19.00;99.90;;;;;;5059363;28;20514;-72
2022/08/13 05:26:29;;;;;;;4.20;3.20;;;19.00;99.90;;;;;;5056224;28;20431;-72
2022/08/13 05:29:02;;;;;;;4.00;3.13;;;19.10;99.90;;;;;;5069782;28;20425;-72
2022/08/13 05:31:29;;;;;;;4.00;3.30;;;19.20;99.90;;;;;;5057836;28;20907;-72
2022/08/13 05:33:56;;;;;;;6.87;2.80;;;19.20;99.90;;;;;;5061775;28;21155;-72
2022/08/13 05:36:24;;;;;;;6.23;3.10;;;19.30;99.90;;;;;;5059148;28;21034;-72
2022/08/13 05:38:52;;;;;;;2.90;2.70;;;19.30;99.90;;;;;;5071920;28;20434;-72
2022/08/13 05:41:19;;;;;;;4.30;2.90;;;19.30;99.90;;;;;;5072818;28;20517;-72
2022/08/13 05:43:47;;;;;;;3.30;3.00;;;19.50;99.90;;;;;;5063487;28;20969;-72
2022/08/13 05:46:14;;;;;;;6.27;2.93;;;19.50;99.90;;;;;;5072597;28;20899;-72
2022/08/13 05:48:42;;;;;;;8.50;2.60;;;19.70;99.90;;;;;;5072008;28;20451;-72
2022/08/13 05:51:13;;;;;;;8.27;3.20;;;19.90;99.90;;;;;;5072693;28;20483;-72
2022/08/13 05:53:40;;;;;;;3.20;2.90;;;20.00;99.90;;;;;;5072993;28;20480;-72
2022/08/13 05:56:08;;;;;;;4.43;2.83;;;20.30;99.90;;;;;;5071201;28;20431;-73
2022/08/13 05:58:35;;;;;;;7.13;2.87;;;20.40;99.90;;;;;;5061833;28;20960;-72
2022/08/13 06:03:47;;;;;;;3.80;3.10;;;20.80;99.90;;;;;;5059561;28;20451;-70
2022/08/13 06:06:15;;;;;;;4.17;3.13;;;21.00;99.40;;;;;;5052311;28;20472;-70
2022/08/13 06:08:43;;;;;;;4.57;2.93;;;21.20;98.90;;;;;;5058301;28;20430;-70
2022/08/13 06:11:15;;;;;;;13.43;3.03;;;21.30;98.00;;;;;;5058158;28;20450;-70
2022/08/13 06:13:43;;;;;;;4.60;2.83;;;21.50;98.20;;;;;;5057709;28;21139;-70
2022/08/13 06:16:12;;;;;;;9.53;3.37;;;21.70;97.70;;;;;;5058347;28;20456;-70
2022/08/13 06:18:43;;;;;;;4.23;2.70;;;22.00;97.60;;;;;;5058434;28;20946;-70
2022/08/13 06:21:12;;;;;;;4.53;2.60;;;22.00;96.40;;;;;;5057826;28;20486;-70
2022/08/13 06:23:40;;;;;;;9.17;2.93;;;22.10;96.20;;;;;;5057923;28;20459;-70
2022/08/13 06:26:07;;;;;;;3.50;3.13;;;22.30;96.00;;;;;;5057866;28;20472;-70
2022/08/13 06:28:36;;;;;;;5.13;3.23;;;22.30;95.70;;;;;;5058004;28;20455;-70
2022/08/13 06:31:05;;;;;;;4.50;3.07;;;22.40;95.60;;;;;;5057449;28;20455;-70
2022/08/13 06:33:34;;;;;;;3.87;3.27;;;22.40;95.10;;;;;;5057898;28;20448;-70
2022/08/13 06:36:04;;;;;;;3.07;2.77;;;22.40;95.40;;;;;;5057785;28;20452;-70
2022/08/13 06:38:32;;;;;;;3.20;2.90;;;22.50;95.50;;;;;;5057565;28;20476;-70
2022/08/13 06:41:00;;;;;;;3.17;2.90;;;22.70;95.30;;;;;;5057008;28;20472;-70
2022/08/13 06:43:28;;;;;;;6.33;2.70;;;22.90;94.80;;;;;;5058344;28;20423;-71
2022/08/13 06:45:59;;;;;;;3.10;2.80;;;23.00;94.80;;;;;;5056715;28;20456;-71
2022/08/13 06:48:26;;;;;;;5.97;3.20;;;23.10;94.50;;;;;;5058354;28;21023;-70
2022/08/13 06:50:53;;;;;;;4.53;2.97;;;23.10;94.70;;;;;;5056997;28;20503;-71
2022/08/13 06:53:20;;;;;;;4.93;2.93;;;23.10;94.30;;;;;;5057927;28;20877;-70
2022/08/13 06:55:51;;;;;;;9.83;3.20;;;23.10;94.50;;;;;;5057620;28;20541;-71
2022/08/13 06:58:22;;;;;;;4.40;2.70;;;23.30;94.30;;;;;;5057207;28;20460;-70
2022/08/13 07:00:52;;;;;;;2.60;2.40;;;23.50;94.30;;;;;;5056889;28;20837;-74
2022/08/13 07:03:20;;;;;;;4.90;2.80;;;23.80;93.80;;;;;;5056754;28;20518;-74
2022/08/13 07:05:46;;;;;;;3.60;2.57;;;24.00;93.70;;;;;;5057071;28;20456;-74
2022/08/13 07:08:13;;;;;;;9.87;2.63;;;24.20;93.70;;;;;;5057598;28;20457;-70
2022/08/13 07:10:43;;;;;;;5.53;2.50;;;24.50;93.20;;;;;;5057473;28;20447;-70
2022/08/13 07:13:10;;;;;;;2.90;2.47;;;24.80;92.70;;;;;;5057450;28;20598;-71
2022/08/13 07:15:37;;;;;;;5.53;2.80;;;25.00;92.70;;;;;;5057800;28;20452;-71
2022/08/13 07:18:06;;;;;;;4.70;2.93;;;25.10;92.60;;;;;;5058108;28;20441;-73
2022/08/13 07:20:36;;;;;;;3.10;2.50;;;25.30;91.90;;;;;;5051579;28;20518;-74
2022/08/13 07:23:02;;;;;;;2.70;2.50;;;25.40;92.00;;;;;;5052665;28;20944;-74
2022/08/13 07:25:30;;;;;;;8.03;2.60;;;25.50;91.70;;;;;;5051732;28;20460;-74
2022/08/13 07:27:59;;;;;;;2.27;2.17;;;25.60;91.50;;;;;;5051566;28;20453;-75
2022/08/13 07:30:26;;;;;;;4.23;2.73;;;25.80;91.60;;;;;;5063326;28;20455;-74
2022/08/13 07:32:53;;;;;;;4.80;2.73;;;26.00;91.40;;;;;;5063013;28;20480;-74
2022/08/13 07:35:20;;;;;;;4.40;2.67;;;26.20;91.00;;;;;;5051998;28;20449;-74
2022/08/13 07:37:52;;;;;;;6.43;2.77;;;26.40;90.70;;;;;;5052969;28;20452;-74
2022/08/13 07:40:20;;;;;;;2.93;2.30;;;26.40;90.50;;;;;;5051290;28;20463;-75
2022/08/13 07:42:48;;;;;;;4.53;2.20;;;26.40;90.70;;;;;;5061373;28;20478;-75
2022/08/13 07:45:24;;;;;;;8.87;2.80;;;26.60;90.80;;;;;;5070449;28;20459;-75
2022/08/13 07:47:52;;;;;;;6.93;2.50;;;26.70;90.00;;;;;;5070214;28;20479;-75
2022/08/13 07:50:20;;;;;;;9.53;2.77;;;26.90;90.00;;;;;;5070557;28;20467;-75
2022/08/13 07:52:55;;;;;;;5.00;2.23;;;27.00;90.00;;;;;;5057552;28;21065;-75
2022/08/13 07:55:23;;;;;;;5.63;2.43;;;27.10;89.60;;;;;;5051278;28;20518;-75
2022/08/13 07:57:50;;;;;;;8.57;3.50;;;27.40;89.40;;;;;;5055797;28;21032;-75
2022/08/13 08:00:24;;;;;;;9.23;3.27;;;27.60;88.40;;;;;;5054508;28;20519;-76
2022/08/13 08:02:56;;;;;;;3.53;2.70;;;27.90;88.10;;;;;;5059177;28;20475;-74
2022/08/13 08:05:25;;;;;;;8.18;2.80;;;28.10;86.80;;;;;;5052589;28;20444;-75
2022/08/13 08:07:53;;;;;;;4.83;2.83;;;28.10;86.90;;;;;;5056782;28;20285;-75
2022/08/13 08:10:20;;;;;;;2.90;2.40;;;28.30;86.30;;;;;;5056358;28;20471;-77
2022/08/13 08:12:47;;;;;;;7.73;2.60;;;28.40;86.00;;;;;;5054267;28;20572;-76
2022/08/13 08:15:14;;;;;;;6.43;2.77;;;28.50;86.20;;;;;;5067644;28;20513;-76
2022/08/13 08:17:42;;;;;;;5.80;2.73;;;28.70;86.50;;;;;;5063819;28;20458;-76
2022/08/13 08:20:10;;;;;;;4.00;2.53;;;28.90;85.20;;;;;;5067290;28;20506;-76
2022/08/13 08:22:39;;;;;;;3.73;2.20;;;29.10;85.00;;;;;;5063840;28;20469;-76
2022/08/13 08:25:16;;;;;;;5.77;2.67;;;29.30;85.30;;;;;;5057060;28;20455;-76
2022/08/13 08:27:44;;;;;;;5.83;3.80;;;29.40;83.50;;;;;;5058195;28;21005;-76
2022/08/13 08:30:15;;;;;;;8.23;2.67;;;29.50;82.40;;;;;;5066952;28;20455;-76
2022/08/13 08:32:42;;;;;;;4.63;2.57;;;29.70;83.00;;;;;;5070432;28;20480;-77
2022/08/13 08:35:09;;;;;;;4.57;2.30;;;29.90;82.00;;;;;;5070306;28;20451;-77
2022/08/13 08:43:11;;;;;;;2.77;2.57;;;30.10;79.70;;;;;;5059989;28;20450;-76
2022/08/13 08:45:39;;;;;;;3.10;2.00;;;30.20;80.70;;;;;;5061088;28;20448;-76
2022/08/13 08:48:08;;;;;;;4.13;2.30;;;30.40;80.40;;;;;;5063024;28;20451;-76
2022/08/13 08:50:34;;;;;;;5.30;2.10;;;30.70;80.20;;;;;;5067249;28;20524;-77
2022/08/13 08:53:20;;;;;;;3.77;2.00;;;30.90;78.90;;;;;;5068936;28;21024;-76
2022/08/13 08:55:50;;;;;;;8.30;1.90;;;31.00;78.70;;;;;;5066627;28;20462;-76
2022/08/13 08:58:18;;;;;;;5.40;2.33;;;31.20;77.00;;;;;;5062471;28;21045;-76
2022/08/13 09:00:47;;;;;;;5.30;2.17;;;31.40;77.60;;;;;;5056672;28;20486;-78
2022/08/13 09:03:18;;;;;;;8.83;2.10;;;31.40;78.60;;;;;;5068720;28;20451;-79
2022/08/13 09:05:46;;;;;;;2.27;2.07;;;31.50;77.00;;;;;;5064755;28;20452;-77
2022/08/13 09:08:15;;;;;;;4.10;2.47;;;31.80;77.60;;;;;;5063816;28;20876;-76
2022/08/13 09:10:44;;;;;;;4.20;2.10;;;31.80;78.20;;;;;;5061681;28;20514;-75
2022/08/13 09:13:19;;;;;;;4.60;2.20;;;31.70;75.90;;;;;;5060670;28;20488;-76
2022/08/13 09:15:48;;;;;;;4.53;2.20;;;31.60;76.40;;;;;;5063306;28;20467;-76
2022/08/13 09:18:16;;;;;;;2.50;2.30;;;31.50;76.80;;;;;;5065099;28;20795;-76
2022/08/13 09:20:44;;;;;;;2.13;1.90;;;31.70;77.10;;;;;;5058616;28;20479;-76
2022/08/13 09:23:14;;;;;;;2.97;2.13;;;31.60;74.90;;;;;;5060387;28;20505;-75
2022/08/13 09:25:45;;;;;;;2.73;2.37;;;31.50;75.30;;;;;;5065463;28;20487;-76
2022/08/13 09:28:15;;;;;;;11.13;2.20;;;31.20;74.50;;;;;;5060483;28;20799;-76
2022/08/13 09:30:45;;;;;;;3.90;2.10;;;30.80;75.40;;;;;;5060648;28;20951;-72
2022/08/13 09:33:12;;;;;;;3.10;2.40;;;30.70;75.00;;;;;;5058331;28;20492;-74
2022/08/13 09:35:40;;;;;;;3.03;1.80;;;30.70;75.20;;;;;;5059710;28;20452;-75
2022/08/13 09:38:07;;;;;;;5.10;2.87;;;30.80;76.10;;;;;;5053352;28;20513;-71
2022/08/13 09:40:39;;;;;;;4.10;2.23;;;30.90;76.10;;;;;;5066038;28;20462;-71
2022/08/13 09:43:08;;;;;;;4.33;2.00;;;31.20;75.60;;;;;;5061359;28;20463;-69
2022/08/13 09:45:38;;;;;;;7.03;1.90;;;31.40;75.70;;;;;;5064408;28;20451;-69
2022/08/13 09:48:08;;;;;;;2.30;2.00;;;31.60;75.10;;;;;;5062914;28;20448;-68
2022/08/13 09:50:36;;;;;;;2.43;2.23;;;31.60;76.20;;;;;;5062659;28;20459;-68
2022/08/13 09:53:03;;;;;;;3.10;2.40;;;31.50;74.70;;;;;;5066000;28;20487;-71
2022/08/13 09:55:30;;;;;;;5.50;1.83;;;31.70;74.70;;;;;;5057788;28;20848;-69
2022/08/13 09:57:59;;;;;;;2.20;2.00;;;31.80;74.10;;;;;;5062194;28;20449;-67
2022/08/13 10:00:28;;;;;;;2.03;1.83;;;31.80;72.10;;;;;;5059594;28;20571;-69
2022/08/13 10:02:59;;;;;;;5.93;2.10;;;31.50;72.50;;;;;;5060738;28;20472;-69
2022/08/13 10:05:26;;;;;;;2.73;2.17;;;31.40;73.30;;;;;;5061730;28;20554;-68
2022/08/13 10:07:53;;;;;;;2.30;2.17;;;31.30;72.60;;;;;;5062776;28;21010;-69
2022/08/13 10:10:21;;;;;;;2.10;1.90;;;31.30;72.90;;;;;;5064646;28;20535;-68
2022/08/13 10:12:48;;;;;;;2.10;1.90;;;31.20;73.60;;;;;;5056531;28;20548;-70
2022/08/13 10:15:14;;;;;;;3.80;1.83;;;31.30;73.50;;;;;;5061981;28;20448;-69
2022/08/13 10:17:46;;;;;;;2.40;2.20;;;31.60;72.60;;;;;;5060099;28;20452;-70
2022/08/13 10:20:16;;;;;;;2.00;1.90;;;31.70;72.10;;;;;;5065553;28;20448;-68
2022/08/13 10:22:43;;;;;;;2.00;1.90;;;31.80;73.20;;;;;;5064791;28;20472;-69
2022/08/13 10:25:10;;;;;;;3.20;1.80;;;32.00;72.60;;;;;;5049783;28;20455;-70
2022/08/13 10:27:37;;;;;;;2.33;1.80;;;32.30;73.40;;;;;;5055422;28;21189;-70
2022/08/13 10:30:05;;;;;;;2.27;2.17;;;32.50;71.70;;;;;;5054818;28;20480;-69
2022/08/13 10:32:33;;;;;;;3.50;2.13;;;32.00;70.20;;;;;;5054705;28;20496;-70
2022/08/13 10:35:00;;;;;;;2.40;2.20;;;31.50;71.60;;;;;;5058929;28;20455;-69
2022/08/13 10:37:29;;;;;;;7.87;2.23;;;31.30;71.30;;;;;;5060442;28;20460;-69
2022/08/13 10:39:56;;;;;;;2.20;2.00;;;31.10;72.10;;;;;;5058055;28;22129;-69
2022/08/13 10:42:24;;;;;;;2.60;2.40;;;31.00;72.10;;;;;;5059485;28;20498;-69
2022/08/13 10:44:51;;;;;;;2.97;2.30;;;30.70;72.50;;;;;;5055815;28;20455;-69
2022/08/13 10:47:19;;;;;;;2.50;2.30;;;30.50;71.60;;;;;;5054524;28;20448;-71
2022/08/13 10:49:49;;;;;;;2.73;2.53;;;30.60;72.50;;;;;;5052897;28;20881;-70
2022/08/13 10:52:17;;;;;;;3.53;2.43;;;30.60;71.80;;;;;;5054878;28;20480;-71
2022/08/13 10:54:45;;;;;;;3.53;2.13;;;30.70;71.40;;;;;;5064418;28;20454;-68
2022/08/13 10:57:12;;;;;;;4.20;3.80;;;30.80;71.90;;;;;;5048561;28;20467;-69
2022/08/13 10:59:39;;;;;;;11.17;4.00;;;31.00;70.60;;;;;;5056715;28;20488;-70
2022/08/13 11:02:07;;;;;;;1.90;1.80;;;31.20;70.00;;;;;;5059239;28;20555;-75
2022/08/13 11:04:34;;;;;;;3.83;2.30;;;31.20;70.10;;;;;;5055402;28;21435;-75
2022/08/13 11:07:00;;;;;;;2.33;2.20;;;31.60;69.70;;;;;;5054293;28;20887;-76
2022/08/13 11:09:27;;;;;;;3.50;2.73;;;31.70;69.20;;;;;;5061335;28;20955;-75
2022/08/13 11:11:58;;;;;;;3.37;2.50;;;31.70;68.30;;;;;;5058603;28;21004;-75
2022/08/13 11:14:25;;;;;;;3.90;3.50;;;31.80;68.60;;;;;;5067028;28;20483;-77
2022/08/13 11:17:04;;;;;;;2.23;2.03;;;31.80;68.00;;;;;;5064490;28;20444;-75
2022/08/13 11:19:34;;;;;;;1.97;1.87;;;31.90;67.60;;;;;;5067697;28;20495;-74
2022/08/13 11:22:00;;;;;;;2.03;1.93;;;31.60;68.30;;;;;;5062605;28;20495;-75
2022/08/13 11:24:27;;;;;;;5.63;1.83;;;31.30;67.90;;;;;;5056434;28;20448;-75
2022/08/13 11:26:53;;;;;;;5.03;2.17;;;31.40;69.10;;;;;;5062016;28;20795;-76
2022/08/13 11:29:21;;;;;;;2.50;2.30;;;31.80;68.90;;;;;;5058408;28;20546;-75
2022/08/13 11:31:48;;;;;;;2.90;2.23;;;32.10;67.10;;;;;;5056028;28;20999;-76
2022/08/13 11:34:15;;;;;;;1.80;1.70;;;31.90;67.00;;;;;;5054664;28;21203;-74
2022/08/13 11:36:41;;;;;;;5.43;4.93;;;31.70;67.50;;;;;;5050721;28;20438;-75
2022/08/13 11:39:08;;;;;;;2.60;2.20;;;31.60;66.20;;;;;;5053918;28;20233;-75
2022/08/13 11:41:35;;;;;;;12.47;11.10;;;31.40;66.40;;;;;;5052447;28;20494;-75
2022/08/13 11:44:01;;;;;;;5.53;4.63;;;31.50;67.00;;;;;;5060154;28;20447;-75
2022/08/13 11:46:30;;;;;;;8.00;7.17;;;31.50;65.50;;;;;;5066388;28;20947;-77
2022/08/13 11:48:56;;;;;;;3.43;2.10;;;31.40;66.00;;;;;;5055500;28;20818;-76
2022/08/13 11:51:23;;;;;;;3.90;1.60;;;31.50;66.80;;;;;;5062642;28;20451;-76
2022/08/13 11:53:49;;;;;;;3.30;2.20;;;31.80;67.20;;;;;;5062833;28;20221;-75
2022/08/13 11:56:16;;;;;;;2.90;1.53;;;32.20;66.40;;;;;;5066795;28;20452;-75
2022/08/13 11:58:43;;;;;;;1.93;1.73;;;32.70;67.20;;;;;;5062585;28;20451;-77
2022/08/13 12:01:10;;;;;;;2.27;2.07;;;33.20;65.10;;;;;;5061685;28;20468;-78
2022/08/13 12:03:39;;;;;;;2.00;1.90;;;33.40;62.90;;;;;;5061667;28;20508;-78
2022/08/13 12:06:07;;;;;;;3.13;2.83;;;33.20;62.40;;;;;;5065834;28;20451;-77
2022/08/13 12:08:33;;;;;;;2.57;2.20;;;33.30;61.90;;;;;;5062339;28;20959;-76
2022/08/13 12:11:00;;;;;;;1.80;1.70;;;33.30;61.40;;;;;;5053351;28;20537;-76
2022/08/13 12:13:27;;;;;;;2.50;1.67;;;33.40;61.80;;;;;;5068251;28;20475;-77
2022/08/13 12:15:53;;;;;;;1.70;1.50;;;33.50;61.40;;;;;;5061396;28;20602;-77
2022/08/13 12:18:20;;;;;;;2.20;1.87;;;33.70;61.30;;;;;;5057742;28;20476;-77
2022/08/13 12:20:48;;;;;;;2.17;1.90;;;33.80;60.90;;;;;;5064277;28;20860;-78
2022/08/13 12:23:15;;;;;;;2.90;1.93;;;34.10;61.60;;;;;;5054987;28;20449;-77
2022/08/13 12:25:42;;;;;;;2.83;1.50;;;34.20;61.40;;;;;;5061172;28;20448;-77
2022/08/13 12:28:11;;;;;;;2.23;1.73;;;33.80;59.40;;;;;;5054249;28;21010;-77
2022/08/13 12:30:37;;;;;;;3.60;1.93;;;33.90;59.20;;;;;;5055448;28;20447;-78
2022/08/13 12:33:05;;;;;;;3.00;1.70;;;33.90;59.50;;;;;;5056001;28;20552;-78
2022/08/13 12:35:32;;;;;;;1.90;1.80;;;33.70;59.50;;;;;;5055107;28;20899;-77
2022/08/13 12:38:00;;;;;;;5.23;1.50;;;33.70;59.50;;;;;;5054632;28;20452;-77
2022/08/13 12:40:27;;;;;;;1.80;1.70;;;33.50;59.00;;;;;;5060284;28;20513;-77
2022/08/13 12:42:53;;;;;;;1.90;1.80;;;33.00;59.20;;;;;;5059909;28;20518;-78
2022/08/13 12:45:20;;;;;;;2.50;1.77;;;32.70;60.00;;;;;;5064955;28;20581;-77
2022/08/13 12:47:47;;;;;;;2.43;1.87;;;32.40;59.60;;;;;;5065065;28;20455;-78
2022/08/13 12:50:13;;;;;;;2.17;1.97;;;32.10;60.40;;;;;;5062653;28;20983;-77
2022/08/13 12:52:40;;;;;;;1.73;1.63;;;32.10;59.30;;;;;;5065005;28;20549;-77
2022/08/13 12:55:09;;;;;;;1.93;1.67;;;32.40;59.80;;;;;;5065146;28;20483;-77
2022/08/13 12:57:37;;;;;;;1.90;1.80;;;32.60;60.90;;;;;;5062526;28;20444;-77
2022/08/13 13:00:07;;;;;;;3.03;2.30;;;33.10;59.50;;;;;;5055379;28;20498;-73
2022/08/13 13:02:34;;;;;;;2.60;1.90;;;33.30;60.30;;;;;;5067947;28;20475;-70
2022/08/13 13:05:01;;;;;;;2.30;2.10;;;33.50;59.60;;;;;;5068752;28;20436;-71
2022/08/13 13:07:28;;;;;;;2.23;1.97;;;33.60;60.90;;;;;;5069697;28;20513;-69
2022/08/13 13:09:54;;;;;;;1.67;1.57;;;33.80;59.40;;;;;;5056363;28;20835;-69